sensor_id;sensor_type;location;lat;lon;timestamp;pressure;altitude;pressure_sealevel;temperature;humidity
68193;BME280;55012;47.562;18.414;2023-11-21T00:02:13;98798.22;;;8.02;100.00
68193;BME280;55012;47.562;18.414;2023-11-21T00:04:39;98797.13;;;8.03;100.00
68193;BME280;55012;47.562;18.414;2023-11-21T00:07:04;98795.31;;;8.07;100.00
68193;BME280;55012;47.562;18.414;2023-11-21T00:09:31;98804.97;;;8.08;100.00
68193;BME280;55012;47.562;18.414;2023-11-21T00:11:57;98807.66;;;8.08;100.00
68193;BME280;55012;47.562;18.414;2023-11-21T00:14:24;98807.00;;;8.11;100.00
68193;BME280;55012;47.562;18.414;2023-11-21T00:16:50;98810.34;;;8.08;100.00
68193;BME280;55012;47.562;18.414;2023-11-21T00:19:15;98814.38;;;8.02;100.00
68193;BME280;55012;47.562;18.414;2023-11-21T00:21:42;98818.78;;;8.06;100.00
68193;BME280;55012;47.562;18.414;2023-11-21T00:24:09;98815.16;;;8.02;100.00
68193;BME280;55012;47.562;18.414;2023-11-21T00:26:35;98811.69;;;8.02;100.00
68193;BME280;55012;47.562;18.414;2023-11-21T00:29:02;98815.50;;;8.01;100.00
68193;BME280;55012;47.562;18.414;2023-11-21T00:31:27;98814.19;;;7.95;100.00
68193;BME280;55012;47.562;18.414;2023-11-21T00:33:53;98818.66;;;7.91;100.00
68193;BME280;55012;47.562;18.414;2023-11-21T00:36:20;98823.94;;;7.87;100.00
68193;BME280;55012;47.562;18.414;2023-11-21T00:38:45;98817.78;;;7.86;100.00
68193;BME280;55012;47.562;18.414;2023-11-21T00:41:10;98807.66;;;7.96;100.00
68193;BME280;55012;47.562;18.414;2023-11-21T00:43:36;98812.16;;;7.92;100.00
68193;BME280;55012;47.562;18.414;2023-11-21T00:46:05;98807.00;;;7.86;100.00
68193;BME280;55012;47.562;18.414;2023-11-21T00:48:33;98808.22;;;7.89;100.00
68193;BME280;55012;47.562;18.414;2023-11-21T00:50:58;98811.25;;;7.87;100.00
68193;BME280;55012;47.562;18.414;2023-11-21T00:53:24;98811.03;;;7.80;100.00
68193;BME280;55012;47.562;18.414;2023-11-21T00:55:49;98815.84;;;7.75;100.00
68193;BME280;55012;47.562;18.414;2023-11-21T00:58:17;98825.59;;;7.67;100.00
68193;BME280;55012;47.562;18.414;2023-11-21T01:00:43;98815.50;;;7.64;100.00
68193;BME280;55012;47.562;18.414;2023-11-21T01:03:09;98815.72;;;7.59;100.00
68193;BME280;55012;47.562;18.414;2023-11-21T01:05:34;98807.19;;;7.57;100.00
68193;BME280;55012;47.562;18.414;2023-11-21T01:08:00;98794.19;;;7.59;100.00
68193;BME280;55012;47.562;18.414;2023-11-21T01:10:25;98805.09;;;7.63;100.00
68193;BME280;55012;47.562;18.414;2023-11-21T01:12:51;98803.50;;;7.62;100.00
68193;BME280;55012;47.562;18.414;2023-11-21T01:15:16;98796.31;;;7.66;100.00
68193;BME280;55012;47.562;18.414;2023-11-21T01:17:41;98795.66;;;7.69;100.00
68193;BME280;55012;47.562;18.414;2023-11-21T01:20:08;98791.72;;;7.66;100.00
68193;BME280;55012;47.562;18.414;2023-11-21T01:22:37;98784.56;;;7.70;100.00
68193;BME280;55012;47.562;18.414;2023-11-21T01:25:04;98782.31;;;7.72;100.00
68193;BME280;55012;47.562;18.414;2023-11-21T01:27:36;98786.00;;;7.68;100.00
68193;BME280;55012;47.562;18.414;2023-11-21T01:30:05;98783.31;;;7.68;100.00
68193;BME280;55012;47.562;18.414;2023-11-21T01:32:33;98778.59;;;7.65;100.00
68193;BME280;55012;47.562;18.414;2023-11-21T01:34:59;98778.81;;;7.59;100.00
68193;BME280;55012;47.562;18.414;2023-11-21T01:37:25;98771.44;;;7.56;100.00
68193;BME280;55012;47.562;18.414;2023-11-21T01:39:53;98782.19;;;7.56;100.00
68193;BME280;55012;47.562;18.414;2023-11-21T01:42:20;98781.06;;;7.57;100.00
68193;BME280;55012;47.562;18.414;2023-11-21T01:44:46;98778.38;;;7.57;100.00
68193;BME280;55012;47.562;18.414;2023-11-21T01:47:12;98767.72;;;7.61;100.00
68193;BME280;55012;47.562;18.414;2023-11-21T01:49:38;98773.22;;;7.65;100.00
68193;BME280;55012;47.562;18.414;2023-11-21T01:52:04;98765.16;;;7.65;100.00
68193;BME280;55012;47.562;18.414;2023-11-21T01:54:30;98769.97;;;7.71;100.00
68193;BME280;55012;47.562;18.414;2023-11-21T01:57:00;98765.91;;;7.77;100.00
68193;BME280;55012;47.562;18.414;2023-11-21T01:59:34;98769.53;;;7.81;100.00
68193;BME280;55012;47.562;18.414;2023-11-21T02:01:59;98764.13;;;7.81;100.00
68193;BME280;55012;47.562;18.414;2023-11-21T02:04:25;98764.34;;;7.76;100.00
68193;BME280;55012;47.562;18.414;2023-11-21T02:06:50;98758.97;;;7.76;100.00
68193;BME280;55012;47.562;18.414;2023-11-21T02:09:17;98756.84;;;7.82;100.00
68193;BME280;55012;47.562;18.414;2023-11-21T02:11:43;98748.41;;;7.83;100.00
68193;BME280;55012;47.562;18.414;2023-11-21T02:14:09;98748.84;;;7.85;100.00
68193;BME280;55012;47.562;18.414;2023-11-21T02:16:35;98753.59;;;7.88;100.00
68193;BME280;55012;47.562;18.414;2023-11-21T02:19:02;98747.06;;;7.89;100.00
68193;BME280;55012;47.562;18.414;2023-11-21T02:21:32;98741.69;;;7.89;100.00
68193;BME280;55012;47.562;18.414;2023-11-21T02:23:57;98733.25;;;7.91;100.00
68193;BME280;55012;47.562;18.414;2023-11-21T02:26:23;98741.34;;;7.91;100.00
68193;BME280;55012;47.562;18.414;2023-11-21T02:28:51;98734.03;;;7.92;100.00
68193;BME280;55012;47.562;18.414;2023-11-21T02:31:18;98737.97;;;7.94;100.00
68193;BME280;55012;47.562;18.414;2023-11-21T02:33:44;98732.91;;;7.93;100.00
68193;BME280;55012;47.562;18.414;2023-11-21T02:36:09;98727.19;;;7.94;100.00
68193;BME280;55012;47.562;18.414;2023-11-21T02:38:35;98731.47;;;7.95;100.00
68193;BME280;55012;47.562;18.414;2023-11-21T02:41:00;98731.00;;;7.93;100.00
68193;BME280;55012;47.562;18.414;2023-11-21T02:43:26;98728.78;;;7.95;100.00
68193;BME280;55012;47.562;18.414;2023-11-21T02:45:51;98730.34;;;7.96;100.00
68193;BME280;55012;47.562;18.414;2023-11-21T02:48:16;98732.56;;;7.94;100.00
68193;BME280;55012;47.562;18.414;2023-11-21T02:50:42;98726.41;;;7.94;100.00
68193;BME280;55012;47.562;18.414;2023-11-21T02:53:08;98733.69;;;7.93;100.00
68193;BME280;55012;47.562;18.414;2023-11-21T02:55:36;98727.53;;;7.93;100.00
68193;BME280;55012;47.562;18.414;2023-11-21T02:58:02;98727.88;;;7.91;100.00
68193;BME280;55012;47.562;18.414;2023-11-21T03:00:29;98718.56;;;7.88;100.00
68193;BME280;55012;47.562;18.414;2023-11-21T03:02:55;98715.09;;;7.88;100.00
68193;BME280;55012;47.562;18.414;2023-11-21T03:05:21;98713.97;;;7.89;100.00
68193;BME280;55012;47.562;18.414;2023-11-21T03:07:47;98717.00;;;7.87;100.00
68193;BME280;55012;47.562;18.414;2023-11-21T03:10:12;98711.63;;;7.87;100.00
68193;BME280;55012;47.562;18.414;2023-11-21T03:12:39;98705.88;;;7.89;100.00
68193;BME280;55012;47.562;18.414;2023-11-21T03:15:06;98708.94;;;7.87;100.00
68193;BME280;55012;47.562;18.414;2023-11-21T03:17:31;98704.09;;;7.81;100.00
68193;BME280;55012;47.562;18.414;2023-11-21T03:19:59;98699.63;;;7.73;100.00
68193;BME280;55012;47.562;18.414;2023-11-21T03:22:25;98703.31;;;7.68;100.00
68193;BME280;55012;47.562;18.414;2023-11-21T03:24:50;98693.47;;;7.60;100.00
68193;BME280;55012;47.562;18.414;2023-11-21T03:27:16;98690.69;;;7.56;100.00
68193;BME280;55012;47.562;18.414;2023-11-21T03:29:41;98686.06;;;7.57;100.00
68193;BME280;55012;47.562;18.414;2023-11-21T03:32:07;98684.94;;;7.58;100.00
68193;BME280;55012;47.562;18.414;2023-11-21T03:34:32;98682.25;;;7.58;100.00
68193;BME280;55012;47.562;18.414;2023-11-21T03:36:58;98684.94;;;7.58;100.00
68193;BME280;55012;47.562;18.414;2023-11-21T03:39:24;98682.59;;;7.56;100.00
68193;BME280;55012;47.562;18.414;2023-11-21T03:41:51;98684.84;;;7.54;100.00
68193;BME280;55012;47.562;18.414;2023-11-21T03:44:17;98695.41;;;7.47;100.00
68193;BME280;55012;47.562;18.414;2023-11-21T03:46:43;98701.78;;;7.43;100.00
68193;BME280;55012;47.562;18.414;2023-11-21T03:49:09;98695.06;;;7.37;100.00
68193;BME280;55012;47.562;18.414;2023-11-21T03:51:39;98702.66;;;7.35;100.00
68193;BME280;55012;47.562;18.414;2023-11-21T03:54:04;98696.06;;;7.32;100.00
68193;BME280;55012;47.562;18.414;2023-11-21T03:56:29;98696.06;;;7.32;100.00
68193;BME280;55012;47.562;18.414;2023-11-21T03:58:55;98702.22;;;7.32;100.00
68193;BME280;55012;47.562;18.414;2023-11-21T04:01:24;98700.53;;;7.28;100.00
68193;BME280;55012;47.562;18.414;2023-11-21T04:03:50;98707.38;;;7.25;100.00
68193;BME280;55012;47.562;18.414;2023-11-21T04:06:17;98715.44;;;7.25;100.00
68193;BME280;55012;47.562;18.414;2023-11-21T04:08:43;98713.44;;;7.22;100.00
68193;BME280;55012;47.562;18.414;2023-11-21T04:11:10;98726.75;;;7.19;100.00
68193;BME280;55012;47.562;18.414;2023-11-21T04:13:38;98717.13;;;7.18;100.00
68193;BME280;55012;47.562;18.414;2023-11-21T04:16:05;98719.81;;;7.18;100.00
68193;BME280;55012;47.562;18.414;2023-11-21T04:18:31;98727.44;;;7.16;100.00
68193;BME280;55012;47.562;18.414;2023-11-21T04:20:56;98729.00;;;7.17;100.00
68193;BME280;55012;47.562;18.414;2023-11-21T04:23:22;98731.69;;;7.17;100.00
68193;BME280;55012;47.562;18.414;2023-11-21T04:25:47;98725.19;;;7.18;100.00
68193;BME280;55012;47.562;18.414;2023-11-21T04:28:13;98729.25;;;7.24;100.00
68193;BME280;55012;47.562;18.414;2023-11-21T04:30:38;98722.63;;;7.33;100.00
68193;BME280;55012;47.562;18.414;2023-11-21T04:33:04;98711.31;;;7.40;100.00
68193;BME280;55012;47.562;18.414;2023-11-21T04:35:30;98716.47;;;7.45;100.00
68193;BME280;55012;47.562;18.414;2023-11-21T04:37:55;98723.53;;;7.50;100.00
68193;BME280;55012;47.562;18.414;2023-11-21T04:40:22;98711.31;;;7.52;100.00
68193;BME280;55012;47.562;18.414;2023-11-21T04:42:48;98712.56;;;7.55;100.00
68193;BME280;55012;47.562;18.414;2023-11-21T04:45:13;98711.09;;;7.57;100.00
68193;BME280;55012;47.562;18.414;2023-11-21T04:47:39;98709.31;;;7.62;100.00
68193;BME280;55012;47.562;18.414;2023-11-21T04:50:05;98714.22;;;7.59;100.00
68193;BME280;55012;47.562;18.414;2023-11-21T04:52:31;98711.09;;;7.57;100.00
68193;BME280;55012;47.562;18.414;2023-11-21T04:54:58;98705.69;;;7.57;100.00
68193;BME280;55012;47.562;18.414;2023-11-21T04:57:24;98709.06;;;7.54;100.00
68193;BME280;55012;47.562;18.414;2023-11-21T04:59:49;98707.59;;;7.57;100.00
68193;BME280;55012;47.562;18.414;2023-11-21T05:02:16;98716.69;;;7.52;100.00
68193;BME280;55012;47.562;18.414;2023-11-21T05:04:41;98719.97;;;7.46;100.00
68193;BME280;55012;47.562;18.414;2023-11-21T05:07:08;98721.88;;;7.45;100.00
68193;BME280;55012;47.562;18.414;2023-11-21T05:09:33;98721.88;;;7.45;100.00
68193;BME280;55012;47.562;18.414;2023-11-21T05:11:59;98726.56;;;7.48;100.00
68193;BME280;55012;47.562;18.414;2023-11-21T05:14:25;98721.63;;;7.50;100.00
68193;BME280;55012;47.562;18.414;2023-11-21T05:16:51;98729.81;;;7.54;100.00
68193;BME280;55012;47.562;18.414;2023-11-21T05:19:17;98735.66;;;7.56;100.00
68193;BME280;55012;47.562;18.414;2023-11-21T05:21:42;98747.97;;;7.57;100.00
68193;BME280;55012;47.562;18.414;2023-11-21T05:24:08;98757.38;;;7.51;100.00
68193;BME280;55012;47.562;18.414;2023-11-21T05:26:34;98738.66;;;7.42;100.00
68193;BME280;55012;47.562;18.414;2023-11-21T05:29:00;98731.03;;;7.44;100.00
68193;BME280;55012;47.562;18.414;2023-11-21T05:31:25;98737.22;;;7.45;100.00
68193;BME280;55012;47.562;18.414;2023-11-21T05:33:52;98746.75;;;7.42;100.00
68193;BME280;55012;47.562;18.414;2023-11-21T05:36:18;98738.91;;;7.37;100.00
68193;BME280;55012;47.562;18.414;2023-11-21T05:38:43;98743.81;;;7.35;100.00
68193;BME280;55012;47.562;18.414;2023-11-21T05:41:09;98751.78;;;7.31;100.00
68193;BME280;55012;47.562;18.414;2023-11-21T05:43:38;98756.03;;;7.32;100.00
68193;BME280;55012;47.562;18.414;2023-11-21T05:46:05;98768.25;;;7.30;100.00
68193;BME280;55012;47.562;18.414;2023-11-21T05:48:32;98774.78;;;7.29;100.00
68193;BME280;55012;47.562;18.414;2023-11-21T05:50:58;98775.56;;;7.29;100.00
68193;BME280;55012;47.562;18.414;2023-11-21T05:53:24;98780.25;;;7.32;100.00
68193;BME280;55012;47.562;18.414;2023-11-21T05:55:49;98784.84;;;7.32;100.00
68193;BME280;55012;47.562;18.414;2023-11-21T05:58:15;98793.59;;;7.29;100.00
68193;BME280;55012;47.562;18.414;2023-11-21T06:00:40;98806.13;;;7.25;100.00
68193;BME280;55012;47.562;18.414;2023-11-21T06:03:06;98810.94;;;7.19;100.00
68193;BME280;55012;47.562;18.414;2023-11-21T06:05:33;98824.59;;;7.14;100.00
68193;BME280;55012;47.562;18.414;2023-11-21T06:07:58;98824.69;;;7.06;100.00
68193;BME280;55012;47.562;18.414;2023-11-21T06:10:24;98824.78;;;6.97;100.00
68193;BME280;55012;47.562;18.414;2023-11-21T06:12:50;98825.31;;;6.90;100.00
68193;BME280;55012;47.562;18.414;2023-11-21T06:15:16;98835.78;;;6.83;100.00
68193;BME280;55012;47.562;18.414;2023-11-21T06:17:44;98838.94;;;6.85;100.00
68193;BME280;55012;47.562;18.414;2023-11-21T06:20:14;98842.75;;;6.84;100.00
68193;BME280;55012;47.562;18.414;2023-11-21T06:22:41;98843.41;;;6.81;100.00
68193;BME280;55012;47.562;18.414;2023-11-21T06:25:08;98843.88;;;6.83;100.00
68193;BME280;55012;47.562;18.414;2023-11-21T06:27:37;98845.09;;;6.86;100.00
68193;BME280;55012;47.562;18.414;2023-11-21T06:30:04;98847.59;;;6.91;100.00
68193;BME280;55012;47.562;18.414;2023-11-21T06:32:30;98853.88;;;6.95;100.00
68193;BME280;55012;47.562;18.414;2023-11-21T06:34:56;98849.44;;;6.99;100.00
68193;BME280;55012;47.562;18.414;2023-11-21T06:37:26;98846.53;;;7.04;100.00
68193;BME280;55012;47.562;18.414;2023-11-21T06:39:52;98852.63;;;7.13;100.00
68193;BME280;55012;47.562;18.414;2023-11-21T06:42:18;98849.06;;;7.21;100.00
68193;BME280;55012;47.562;18.414;2023-11-21T06:44:45;98843.00;;;7.24;100.00
68193;BME280;55012;47.562;18.414;2023-11-21T06:47:10;98852.00;;;7.28;100.00
68193;BME280;55012;47.562;18.414;2023-11-21T06:49:36;98850.41;;;7.27;100.00
68193;BME280;55012;47.562;18.414;2023-11-21T06:52:04;98852.47;;;7.30;100.00
68193;BME280;55012;47.562;18.414;2023-11-21T06:54:31;98856.13;;;7.26;100.00
68193;BME280;55012;47.562;18.414;2023-11-21T06:56:56;98854.09;;;7.23;100.00
68193;BME280;55012;47.562;18.414;2023-11-21T06:59:22;98858.38;;;7.24;100.00
68193;BME280;55012;47.562;18.414;2023-11-21T07:01:49;98860.53;;;7.30;100.00
68193;BME280;55012;47.562;18.414;2023-11-21T07:04:14;98854.59;;;7.37;100.00
68193;BME280;55012;47.562;18.414;2023-11-21T07:06:40;98865.47;;;7.41;100.00
68193;BME280;55012;47.562;18.414;2023-11-21T07:09:06;98866.06;;;7.46;100.00
68193;BME280;55012;47.562;18.414;2023-11-21T07:11:34;98869.44;;;7.55;100.00
68193;BME280;55012;47.562;18.414;2023-11-21T07:13:59;98870.69;;;7.58;100.00
68193;BME280;55012;47.562;18.414;2023-11-21T07:16:27;98867.78;;;7.63;100.00
68193;BME280;55012;47.562;18.414;2023-11-21T07:18:55;98864.84;;;7.68;100.00
68193;BME280;55012;47.562;18.414;2023-11-21T07:21:21;98866.66;;;7.76;100.00
68193;BME280;55012;47.562;18.414;2023-11-21T07:23:46;98860.63;;;7.79;100.00
68193;BME280;55012;47.562;18.414;2023-11-21T07:26:12;98862.84;;;7.77;100.00
68193;BME280;55012;47.562;18.414;2023-11-21T07:28:37;98870.94;;;7.77;100.00
68193;BME280;55012;47.562;18.414;2023-11-21T07:31:03;98860.16;;;7.77;100.00
68193;BME280;55012;47.562;18.414;2023-11-21T07:33:28;98861.50;;;7.83;100.00
68193;BME280;55012;47.562;18.414;2023-11-21T07:35:54;98858.28;;;7.90;100.00
68193;BME280;55012;47.562;18.414;2023-11-21T07:38:19;98861.06;;;7.94;100.00
68193;BME280;55012;47.562;18.414;2023-11-21T07:40:45;98865.00;;;7.96;100.00
68193;BME280;55012;47.562;18.414;2023-11-21T07:43:10;98854.91;;;7.93;100.00
68193;BME280;55012;47.562;18.414;2023-11-21T07:45:36;98858.72;;;7.92;100.00
68193;BME280;55012;47.562;18.414;2023-11-21T07:48:01;98859.72;;;8.00;100.00
68193;BME280;55012;47.562;18.414;2023-11-21T07:50:29;98854.56;;;8.07;100.00
68193;BME280;55012;47.562;18.414;2023-11-21T07:52:55;98852.44;;;8.12;100.00
68193;BME280;55012;47.562;18.414;2023-11-21T07:55:20;98855.81;;;8.22;100.00
68193;BME280;55012;47.562;18.414;2023-11-21T07:57:46;98857.38;;;8.35;100.00
68193;BME280;55012;47.562;18.414;2023-11-21T08:00:12;98854.34;;;8.49;100.00
68193;BME280;55012;47.562;18.414;2023-11-21T08:02:40;98853.84;;;8.59;100.00
68193;BME280;55012;47.562;18.414;2023-11-21T08:05:12;98856.41;;;8.67;100.00
68193;BME280;55012;47.562;18.414;2023-11-21T08:07:37;98856.63;;;8.75;100.00
68193;BME280;55012;47.562;18.414;2023-11-21T08:10:04;98846.84;;;8.82;100.00
68193;BME280;55012;47.562;18.414;2023-11-21T08:12:32;98850.53;;;8.90;100.00
68193;BME280;55012;47.562;18.414;2023-11-21T08:14:57;98852.72;;;9.00;100.00
68193;BME280;55012;47.562;18.414;2023-11-21T08:17:23;98847.88;;;9.06;100.00
68193;BME280;55012;47.562;18.414;2023-11-21T08:19:49;98852.34;;;9.14;100.00
68193;BME280;55012;47.562;18.414;2023-11-21T08:22:16;98847.81;;;9.18;100.00
68193;BME280;55012;47.562;18.414;2023-11-21T08:24:43;98853.06;;;9.26;100.00
68193;BME280;55012;47.562;18.414;2023-11-21T08:27:09;98858.31;;;9.35;100.00
68193;BME280;55012;47.562;18.414;2023-11-21T08:29:35;98869.63;;;9.41;100.00
68193;BME280;55012;47.562;18.414;2023-11-21T08:32:02;98867.38;;;9.43;100.00
68193;BME280;55012;47.562;18.414;2023-11-21T08:34:27;98873.69;;;9.35;100.00
68193;BME280;55012;47.562;18.414;2023-11-21T08:36:54;98884.38;;;9.15;100.00
68193;BME280;55012;47.562;18.414;2023-11-21T08:39:19;98875.81;;;8.85;100.00
68193;BME280;55012;47.562;18.414;2023-11-21T08:41:44;98878.50;;;8.85;100.00
68193;BME280;55012;47.562;18.414;2023-11-21T08:44:11;98879.19;;;8.94;100.00
68193;BME280;55012;47.562;18.414;2023-11-21T08:46:36;98885.22;;;9.04;100.00
68193;BME280;55012;47.562;18.414;2023-11-21T08:49:03;98876.53;;;9.10;100.00
68193;BME280;55012;47.562;18.414;2023-11-21T08:51:29;98883.34;;;9.20;100.00
68193;BME280;55012;47.562;18.414;2023-11-21T08:53:54;98887.47;;;9.29;100.00
68193;BME280;55012;47.562;18.414;2023-11-21T08:56:24;98884.84;;;9.33;100.00
68193;BME280;55012;47.562;18.414;2023-11-21T08:58:50;98897.69;;;9.36;100.00
68193;BME280;55012;47.562;18.414;2023-11-21T09:01:15;98897.41;;;9.41;100.00
68193;BME280;55012;47.562;18.414;2023-11-21T09:03:41;98896.47;;;9.49;100.00
68193;BME280;55012;47.562;18.414;2023-11-21T09:06:07;98894.75;;;9.57;100.00
68193;BME280;55012;47.562;18.414;2023-11-21T09:08:35;98891.03;;;9.62;100.00
68193;BME280;55012;47.562;18.414;2023-11-21T09:11:00;98888.59;;;9.72;100.00
68193;BME280;55012;47.562;18.414;2023-11-21T09:13:26;98888.78;;;9.79;100.00
68193;BME280;55012;47.562;18.414;2023-11-21T09:15:51;98883.63;;;9.90;100.00
68193;BME280;55012;47.562;18.414;2023-11-21T09:18:17;98881.53;;;9.99;100.00
68193;BME280;55012;47.562;18.414;2023-11-21T09:20:42;98889.03;;;10.06;100.00
68193;BME280;55012;47.562;18.414;2023-11-21T09:23:09;98881.53;;;10.15;100.00
68193;BME280;55012;47.562;18.414;2023-11-21T09:25:35;98874.03;;;10.24;100.00
68193;BME280;55012;47.562;18.414;2023-11-21T09:28:05;98867.41;;;10.37;100.00
68193;BME280;55012;47.562;18.414;2023-11-21T09:30:34;98878.81;;;10.47;100.00
68193;BME280;55012;47.562;18.414;2023-11-21T09:33:00;98883.25;;;10.55;100.00
68193;BME280;55012;47.562;18.414;2023-11-21T09:35:26;98874.84;;;10.60;100.00
68193;BME280;55012;47.562;18.414;2023-11-21T09:37:53;98880.34;;;10.63;100.00
68193;BME280;55012;47.562;18.414;2023-11-21T09:40:22;98877.78;;;10.71;100.00
68193;BME280;55012;47.562;18.414;2023-11-21T09:42:55;98881.63;;;10.69;100.00
68193;BME280;55012;47.562;18.414;2023-11-21T09:45:28;98880.97;;;10.57;100.00
68193;BME280;55012;47.562;18.414;2023-11-21T09:47:57;98885.78;;;10.48;100.00
68193;BME280;55012;47.562;18.414;2023-11-21T09:50:23;98880.31;;;10.44;100.00
68193;BME280;55012;47.562;18.414;2023-11-21T09:55:16;98871.84;;;10.30;100.00
68193;BME280;55012;47.562;18.414;2023-11-21T09:57:45;98864.69;;;10.22;100.00
68193;BME280;55012;47.562;18.414;2023-11-21T10:00:11;98871.06;;;10.13;100.00
68193;BME280;55012;47.562;18.414;2023-11-21T10:02:38;98859.31;;;10.06;100.00
68193;BME280;55012;47.562;18.414;2023-11-21T10:05:06;98856.25;;;10.07;100.00
68193;BME280;55012;47.562;18.414;2023-11-21T10:07:34;98851.44;;;10.17;100.00
68193;BME280;55012;47.562;18.414;2023-11-21T10:10:00;98847.28;;;10.19;100.00
68193;BME280;55012;47.562;18.414;2023-11-21T10:12:28;98864.47;;;10.27;100.00
68193;BME280;55012;47.562;18.414;2023-11-21T10:14:54;98862.09;;;10.25;100.00
68193;BME280;55012;47.562;18.414;2023-11-21T10:17:23;98854.34;;;10.24;100.00
68193;BME280;55012;47.562;18.414;2023-11-21T10:19:51;98864.38;;;10.23;100.00
68193;BME280;55012;47.562;18.414;2023-11-21T10:22:20;98856.16;;;10.20;100.00
68193;BME280;55012;47.562;18.414;2023-11-21T10:24:46;98859.66;;;10.20;100.00
68193;BME280;55012;47.562;18.414;2023-11-21T10:27:11;98848.72;;;10.17;100.00
68193;BME280;55012;47.562;18.414;2023-11-21T10:29:39;98849.81;;;10.12;100.00
68193;BME280;55012;47.562;18.414;2023-11-21T10:32:04;98848.22;;;10.11;100.00
68193;BME280;55012;47.562;18.414;2023-11-21T10:34:30;98848.72;;;10.17;100.00
68193;BME280;55012;47.562;18.414;2023-11-21T10:36:56;98845.34;;;10.20;100.00
68193;BME280;55012;47.562;18.414;2023-11-21T10:39:24;98843.31;;;10.32;100.00
68193;BME280;55012;47.562;18.414;2023-11-21T10:41:54;98840.09;;;10.43;100.00
68193;BME280;55012;47.562;18.414;2023-11-21T10:44:20;98841.47;;;10.52;100.00
68193;BME280;55012;47.562;18.414;2023-11-21T10:46:55;98845.38;;;10.55;100.00
68193;BME280;55012;47.562;18.414;2023-11-21T10:49:22;98849.66;;;10.56;100.00
68193;BME280;55012;47.562;18.414;2023-11-21T10:51:50;98849.84;;;10.47;100.00
68193;BME280;55012;47.562;18.414;2023-11-21T10:54:19;98855.69;;;10.49;100.00
68193;BME280;55012;47.562;18.414;2023-11-21T10:56:47;98847.56;;;10.49;100.00
68193;BME280;55012;47.562;18.414;2023-11-21T10:59:16;98845.88;;;10.60;100.00
68193;BME280;55012;47.562;18.414;2023-11-21T11:01:44;98849.72;;;10.59;100.00
68193;BME280;55012;47.562;18.414;2023-11-21T11:04:11;98842.59;;;10.51;100.00
68193;BME280;55012;47.562;18.414;2023-11-21T11:06:45;98841.50;;;10.36;100.00
68193;BME280;55012;47.562;18.414;2023-11-21T11:09:17;98846.75;;;10.13;100.00
68193;BME280;55012;47.562;18.414;2023-11-21T11:11:42;98845.97;;;10.13;100.00
68193;BME280;55012;47.562;18.414;2023-11-21T11:14:13;98836.47;;;10.19;100.00
68193;BME280;55012;47.562;18.414;2023-11-21T11:16:39;98830.00;;;10.24;100.00
68193;BME280;55012;47.562;18.414;2023-11-21T11:19:11;98833.47;;;10.40;100.00
68193;BME280;55012;47.562;18.414;2023-11-21T11:22:19;98827.84;;;10.49;100.00
68193;BME280;55012;47.562;18.414;2023-11-21T11:25:21;98831.06;;;10.54;100.00
68193;BME280;55012;47.562;18.414;2023-11-21T11:30:39;98832.38;;;10.60;100.00
68193;BME280;55012;47.562;18.414;2023-11-21T11:38:16;98824.81;;;10.69;100.00
68193;BME280;55012;47.562;18.414;2023-11-21T11:40:46;98819.41;;;10.69;100.00
68193;BME280;55012;47.562;18.414;2023-11-21T11:43:12;98818.63;;;10.69;100.00
68193;BME280;55012;47.562;18.414;2023-11-21T11:45:38;98818.63;;;10.69;100.00
68193;BME280;55012;47.562;18.414;2023-11-21T11:48:07;98819.34;;;10.85;100.00
68193;BME280;55012;47.562;18.414;2023-11-21T11:50:33;98821.31;;;10.88;100.00
68193;BME280;55012;47.562;18.414;2023-11-21T11:53:13;98820.19;;;10.89;100.00
68193;BME280;55012;47.562;18.414;2023-11-21T11:55:39;98817.91;;;10.91;100.00
68193;BME280;55012;47.562;18.414;2023-11-21T11:58:06;98816.56;;;10.82;100.00
68193;BME280;55012;47.562;18.414;2023-11-21T12:02:59;98815.34;;;10.60;100.00
68193;BME280;55012;47.562;18.414;2023-11-21T12:05:29;98812.56;;;10.56;100.00
68193;BME280;55012;47.562;18.414;2023-11-21T12:07:59;98814.94;;;10.42;100.00
68193;BME280;55012;47.562;18.414;2023-11-21T12:10:27;98819.09;;;10.36;100.00
68193;BME280;55012;47.562;18.414;2023-11-21T12:12:56;98807.84;;;10.18;100.00
68193;BME280;55012;47.562;18.414;2023-11-21T12:15:22;98803.22;;;10.19;100.00
68193;BME280;55012;47.562;18.414;2023-11-21T12:17:48;98799.59;;;10.27;100.00
68193;BME280;55012;47.562;18.414;2023-11-21T12:20:16;98806.25;;;10.17;100.00
68193;BME280;55012;47.562;18.414;2023-11-21T12:22:45;98806.03;;;10.06;100.00
68193;BME280;55012;47.562;18.414;2023-11-21T12:25:18;98799.84;;;10.06;100.00
68193;BME280;55012;47.562;18.414;2023-11-21T12:27:45;98802.19;;;10.07;100.00
68193;BME280;55012;47.562;18.414;2023-11-21T12:30:12;98800.53;;;10.19;100.00
68193;BME280;55012;47.562;18.414;2023-11-21T12:32:42;98791.91;;;10.29;100.00
68193;BME280;55012;47.562;18.414;2023-11-21T12:35:09;98792.94;;;10.24;100.00
68193;BME280;55012;47.562;18.414;2023-11-21T12:37:39;98798.81;;;10.10;100.00
68193;BME280;55012;47.562;18.414;2023-11-21T12:40:08;98799.06;;;10.05;100.00
68193;BME280;55012;47.562;18.414;2023-11-21T12:42:38;98796.72;;;10.04;100.00
68193;BME280;55012;47.562;18.414;2023-11-21T12:47:50;98792.84;;;10.21;100.00
68193;BME280;55012;47.562;18.414;2023-11-21T12:50:19;98787.28;;;10.29;100.00
68193;BME280;55012;47.562;18.414;2023-11-21T12:52:49;98786.19;;;10.34;100.00
68193;BME280;55012;47.562;18.414;2023-11-21T12:55:22;98790.19;;;10.40;100.00
68193;BME280;55012;47.562;18.414;2023-11-21T12:57:55;98793.84;;;10.48;100.00
68193;BME280;55012;47.562;18.414;2023-11-21T13:00:47;98800.13;;;10.52;100.00
68193;BME280;55012;47.562;18.414;2023-11-21T13:03:15;98802.88;;;10.55;100.00